Time;durP1;ratioP1;P1;durP2;ratioP2;P2;SDS_P1;SDS_P2;PMS_P1;PMS_P2;Temp;Humidity;BMP_temperature;BMP_pressure;BME280_temperature;BME280_humidity;BME280_pressure;Samples;Min_cycle;Max_cycle;Signal;HPM_P1;HPM_P2
2021/03/07 00:01:00;;;;;;;;;;;;;;;19.12;37.24;102250.00;5117279;28;1976;-56
2021/03/07 00:07:01;;;;;;;;;;;;;;;20.45;34.79;102244.28;5117322;28;645;-56
2021/03/07 00:09:26;;;;;;;;;;;;;;;20.00;35.50;102243.59;5117295;28;790;-59
2021/03/07 00:11:52;;;;;;;;;;;;;;;19.81;35.69;102245.91;5117482;28;954;-55
2021/03/07 00:14:17;;;;;;;;;;;;;;;19.20;37.18;102247.94;5117054;28;751;-55
2021/03/07 00:16:43;;;;;;;;;;;;;;;19.37;36.85;102243.16;5117294;28;925;-57
2021/03/07 00:19:08;;;;;;;;;;;;;;;20.27;34.97;102247.44;5117420;28;794;-55
2021/03/07 00:21:34;;;;;;;;;;;;;;;19.95;35.72;102246.34;5116810;28;1914;-55
2021/03/07 00:23:59;;;;;;;;;;;;;;;19.98;35.33;102247.75;5117174;28;747;-54
2021/03/07 00:26:25;;;;;;;;;;;;;;;19.60;36.29;102230.19;5116853;28;1051;-53
2021/03/07 00:28:50;;;;;;;;;;;;;;;19.12;37.37;102232.63;5115542;28;807;-47
2021/03/07 00:31:16;;;;;;;;;;;;;;;19.52;36.35;102225.13;5115808;28;958;-47
2021/03/07 00:36:54;;;;;;;;;;;;;;;19.94;35.50;102230.84;5116521;28;882;-54
2021/03/07 00:39:20;;;;;;;;;;;;;;;19.66;36.04;102223.66;5117089;28;846;-52
2021/03/07 00:41:45;;;;;;;;;;;;;;;19.10;37.12;102221.88;5116659;28;1970;-48
2021/03/07 00:44:10;;;;;;;;;;;;;;;19.46;36.46;102216.81;5116264;28;857;-58
2021/03/07 00:46:43;;;;;;;;;;;;;;;20.38;34.76;102232.63;5117309;28;771;-54
2021/03/07 00:49:08;;;;;;;;;;;;;;;20.01;35.24;102227.91;5116893;28;775;-55
2021/03/07 00:51:34;;;;;;;;;;;;;;;19.82;35.56;102214.47;5116307;28;1051;-55
2021/03/07 00:53:59;;;;;;;;;;;;;;;19.48;36.40;102213.78;5116863;28;818;-54
2021/03/07 00:56:25;;;;;;;;;;;;;;;18.87;37.50;102219.31;5116425;28;1020;-53
2021/03/07 00:58:50;;;;;;;;;;;;;;;19.78;35.68;102217.97;5116559;28;737;-51
2021/03/07 01:01:16;;;;;;;;;;;;;;;20.55;34.40;102207.59;5116630;28;1985;-49
2021/03/07 01:03:42;;;;;;;;;;;;;;;19.93;35.50;102211.81;5116800;28;735;-52
2021/03/07 01:06:08;;;;;;;;;;;;;;;19.69;35.77;102211.25;5122558;28;802;-49
2021/03/07 01:08:33;;;;;;;;;;;;;;;19.17;36.78;102221.69;5123860;28;795;-48
2021/03/07 01:10:59;;;;;;;;;;;;;;;19.63;36.18;102215.91;5123241;28;953;-50
2021/03/07 01:13:24;;;;;;;;;;;;;;;20.36;34.43;102212.72;5122854;28;1456;-49
2021/03/07 01:15:50;;;;;;;;;;;;;;;19.96;35.26;102214.03;5123377;28;767;-50
2021/03/07 01:18:15;;;;;;;;;;;;;;;19.90;35.46;102220.63;5123522;28;799;-51
2021/03/07 01:20:41;;;;;;;;;;;;;;;19.37;36.25;102215.59;5123165;27;1917;-52
2021/03/07 01:23:07;;;;;;;;;;;;;;;18.93;37.43;102218.34;5123713;28;795;-55
2021/03/07 01:25:32;;;;;;;;;;;;;;;19.88;35.59;102214.50;5123269;28;795;-59
2021/03/07 01:28:01;;;;;;;;;;;;;;;20.35;34.28;102222.91;5122753;28;953;-53
2021/03/07 01:30:26;;;;;;;;;;;;;;;19.88;35.16;102222.78;5123686;28;822;-59
2021/03/07 01:32:52;;;;;;;;;;;;;;;19.65;35.73;102219.22;5123331;28;842;-59
2021/03/07 01:35:18;;;;;;;;;;;;;;;19.09;37.10;102216.63;5122682;28;806;-47
2021/03/07 01:37:44;;;;;;;;;;;;;;;19.21;36.86;102216.47;5123221;28;572;-48
2021/03/07 01:40:10;;;;;;;;;;;;;;;20.35;34.50;102216.56;5123316;28;1979;-47
2021/03/07 01:42:36;;;;;;;;;;;;;;;20.00;35.12;102204.13;5122483;28;954;-50
2021/03/07 01:45:01;;;;;;;;;;;;;;;19.93;35.14;102207.09;5123016;28;771;-47
2021/03/07 01:47:31;;;;;;;;;;;;;;;19.34;36.58;102202.31;5123091;28;799;-47
2021/03/07 01:49:57;;;;;;;;;;;;;;;18.92;37.06;102206.47;5122627;28;1317;-47
2021/03/07 01:52:22;;;;;;;;;;;;;;;19.78;35.65;102196.72;5123460;28;775;-47
2021/03/07 01:54:48;;;;;;;;;;;;;;;20.46;34.18;102195.38;5122917;28;748;-48
2021/03/07 01:57:13;;;;;;;;;;;;;;;19.97;34.99;102204.66;5122287;28;1012;-48
2021/03/07 01:59:39;;;;;;;;;;;;;;;19.73;35.56;102210.47;5121887;28;1914;-50
2021/03/07 02:02:04;;;;;;;;;;;;;;;19.30;36.35;102221.28;5121702;28;743;-48
2021/03/07 02:04:45;;;;;;;;;;;;;;;19.25;36.52;102220.41;5122605;28;768;-48
2021/03/07 02:07:10;;;;;;;;;;;;;;;20.14;34.79;102216.41;5121917;28;743;-48
2021/03/07 02:09:36;;;;;;;;;;;;;;;20.14;34.64;102215.56;5122707;28;839;-57
2021/03/07 02:12:01;;;;;;;;;;;;;;;20.06;34.80;102225.16;5122506;28;957;-51
2021/03/07 02:14:27;;;;;;;;;;;;;;;19.65;35.64;102208.19;5121638;28;751;-55
2021/03/07 02:16:53;;;;;;;;;;;;;;;19.07;36.91;102210.50;5118577;28;752;-59
2021/03/07 02:19:19;;;;;;;;;;;;;;;19.72;35.53;102211.56;5119406;28;867;-50
2021/03/07 02:21:48;;;;;;;;;;;;;;;20.58;33.86;102214.53;5118408;28;1905;-48
2021/03/07 02:24:14;;;;;;;;;;;;;;;19.95;35.10;102215.13;5119225;28;854;-59
2021/03/07 02:26:40;;;;;;;;;;;;;;;19.79;35.33;102208.59;5119117;28;1012;-49
2021/03/07 02:29:06;;;;;;;;;;;;;;;19.36;36.33;102211.16;5119462;28;767;-55
2021/03/07 02:31:32;;;;;;;;;;;;;;;18.83;37.21;102201.63;5119267;28;771;-59
2021/03/07 02:37:32;;;;;;;;;;;;;;;19.98;34.96;102207.16;5119155;28;663;-51
2021/03/07 02:39:58;;;;;;;;;;;;;;;19.79;35.43;102201.16;5117599;28;1996;-53
2021/03/07 02:42:24;;;;;;;;;;;;;;;19.44;36.14;102207.94;5118984;28;1012;-50
2021/03/07 02:44:55;;;;;;;;;;;;;;;18.93;36.98;102212.84;5117657;28;828;-50
2021/03/07 02:47:20;;;;;;;;;;;;;;;19.62;35.74;102212.28;5117874;28;752;-51
2021/03/07 02:49:46;;;;;;;;;;;;;;;20.42;34.32;102208.06;5117614;28;1023;-52
2021/03/07 02:52:11;;;;;;;;;;;;;;;19.97;34.93;102210.19;5117512;28;1432;-54
2021/03/07 02:54:37;;;;;;;;;;;;;;;19.79;35.27;102209.44;5117732;28;775;-49
2021/03/07 02:57:02;;;;;;;;;;;;;;;19.31;36.47;102209.19;5118318;28;1037;-48
2021/03/07 02:59:28;;;;;;;;;;;;;;;19.04;37.06;102211.88;5118710;28;814;-50
2021/03/07 03:02:00;;;;;;;;;;;;;;;20.11;34.80;102208.66;5117967;28;1986;-52
2021/03/07 03:04:54;;;;;;;;;;;;;;;20.09;34.64;102207.25;5118344;28;779;-50
2021/03/07 03:07:19;;;;;;;;;;;;;;;19.90;35.29;102210.38;5118633;28;811;-50
2021/03/07 03:09:45;;;;;;;;;;;;;;;19.37;36.00;102210.06;5117576;28;514;-49
2021/03/07 03:12:11;;;;;;;;;;;;;;;18.94;37.06;102209.81;5116784;28;978;-48
2021/03/07 03:14:36;;;;;;;;;;;;;;;19.93;35.04;102214.56;5118379;28;811;-49
2021/03/07 03:17:02;;;;;;;;;;;;;;;20.25;34.70;102210.97;5117410;28;847;-49
2021/03/07 03:19:28;;;;;;;;;;;;;;;19.86;35.22;102212.00;5118138;28;764;-49
2021/03/07 03:21:53;;;;;;;;;;;;;;;19.64;35.57;102212.03;5118230;28;1910;-53
2021/03/07 03:24:19;;;;;;;;;;;;;;;18.99;36.81;102211.81;5118859;28;712;-50
2021/03/07 03:26:44;;;;;;;;;;;;;;;19.67;35.56;102214.28;5116518;28;986;-49
2021/03/07 03:29:10;;;;;;;;;;;;;;;20.27;34.33;102214.28;5118031;28;862;-50
2021/03/07 03:31:35;;;;;;;;;;;;;;;19.76;35.48;102211.88;5118339;28;800;-48
2021/03/07 03:37:37;;;;;;;;;;;;;;;18.85;37.18;102207.72;5118201;28;625;-48
2021/03/07 03:40:03;;;;;;;;;;;;;;;19.77;35.70;102221.84;5116738;28;1917;-48
2021/03/07 03:42:29;;;;;;;;;;;;;;;20.41;34.13;102215.53;5117274;28;961;-47
2021/03/07 03:44:54;;;;;;;;;;;;;;;19.79;35.44;102211.34;5117935;28;874;-50
2021/03/07 03:47:20;;;;;;;;;;;;;;;19.68;35.44;102218.69;5117889;28;854;-48
2021/03/07 03:49:52;;;;;;;;;;;;;;;19.03;36.86;102210.19;5116015;28;1113;-49
2021/03/07 03:52:17;;;;;;;;;;;;;;;19.46;36.17;102210.44;5118199;28;519;-52
2021/03/07 03:54:46;;;;;;;;;;;;;;;20.36;34.16;102218.25;5116588;28;807;-52
2021/03/07 03:57:12;;;;;;;;;;;;;;;19.82;35.37;102208.94;5115819;28;946;-56
2021/03/07 03:59:38;;;;;;;;;;;;;;;19.95;34.85;102217.88;5117851;28;1918;-51
2021/03/07 04:02:03;;;;;;;;;;;;;;;19.19;36.35;102211.22;5116527;28;798;-57
2021/03/07 04:07:29;;;;;;;;;;;;;;;20.38;34.09;102199.47;5116399;28;807;-53
2021/03/07 04:09:55;;;;;;;;;;;;;;;20.87;33.42;102208.66;5116320;28;851;-50
2021/03/07 04:12:20;;;;;;;;;;;;;;;20.41;34.05;102204.47;5116845;28;965;-51
2021/03/07 04:14:46;;;;;;;;;;;;;;;20.33;34.33;102202.22;5117326;28;795;-49
2021/03/07 04:17:11;;;;;;;;;;;;;;;19.70;35.60;102197.19;5116158;28;921;-48
2021/03/07 04:19:37;;;;;;;;;;;;;;;19.21;36.78;102202.69;5115832;28;809;-48
2021/03/07 04:22:02;;;;;;;;;;;;;;;19.67;35.59;102206.00;5115905;28;1975;-49
2021/03/07 04:24:28;;;;;;;;;;;;;;;20.44;34.11;102206.72;5115962;28;807;-55
2021/03/07 04:26:53;;;;;;;;;;;;;;;20.04;34.66;102209.97;5116725;28;1051;-50
2021/03/07 04:29:20;;;;;;;;;;;;;;;19.88;35.03;102201.56;5117250;28;791;-53
2021/03/07 04:31:45;;;;;;;;;;;;;;;19.43;35.94;102200.78;5115662;28;887;-60
2021/03/07 04:37:30;;;;;;;;;;;;;;;19.88;35.36;102206.22;5117100;28;649;-58
2021/03/07 04:39:55;;;;;;;;;;;;;;;20.35;34.16;102205.53;5114743;28;1906;-54
2021/03/07 04:42:21;;;;;;;;;;;;;;;19.89;35.06;102205.13;5116703;28;1021;-55
2021/03/07 04:44:46;;;;;;;;;;;;;;;19.67;35.36;102206.81;5116954;28;775;-58
2021/03/07 04:47:12;;;;;;;;;;;;;;;19.10;36.51;102202.56;5116852;28;803;-55
2021/03/07 04:49:38;;;;;;;;;;;;;;;19.44;36.12;102198.84;5116647;28;1012;-55
2021/03/07 04:52:03;;;;;;;;;;;;;;;20.30;34.14;102208.25;5116799;28;814;-61
2021/03/07 04:54:29;;;;;;;;;;;;;;;19.85;34.93;102201.22;5116627;28;751;-59
2021/03/07 04:56:54;;;;;;;;;;;;;;;19.77;35.15;102203.34;5116009;28;925;-60
2021/03/07 04:59:20;;;;;;;;;;;;;;;19.27;36.08;102199.75;5116361;28;823;-64
2021/03/07 05:01:45;;;;;;;;;;;;;;;18.92;36.92;102197.38;5115611;28;1977;-50
2021/03/07 05:07:32;;;;;;;;;;;;;;;19.88;35.01;102193.28;5116452;28;594;-54
2021/03/07 05:09:58;;;;;;;;;;;;;;;19.85;34.93;102198.47;5116467;28;775;-57
2021/03/07 05:12:23;;;;;;;;;;;;;;;19.41;36.04;102189.16;5116264;28;992;-56
2021/03/07 05:14:48;;;;;;;;;;;;;;;19.09;36.68;102200.91;5116403;28;763;-57
2021/03/07 05:17:14;;;;;;;;;;;;;;;20.07;34.49;102201.97;5116412;28;834;-57
2021/03/07 05:19:39;;;;;;;;;;;;;;;20.14;34.24;102199.81;5116565;28;775;-57
2021/03/07 05:22:05;;;;;;;;;;;;;;;19.81;34.99;102200.91;5116408;28;1913;-58
2021/03/07 05:24:30;;;;;;;;;;;;;;;19.40;35.69;102209.53;5116174;28;759;-58
2021/03/07 05:27:05;;;;;;;;;;;;;;;19.03;36.58;102210.19;5116151;28;1016;-57
2021/03/07 05:29:31;;;;;;;;;;;;;;;19.30;35.61;102220.47;5116944;28;966;-49
2021/03/07 05:31:57;;;;;;;;;;;;;;;20.23;33.08;102219.53;5116261;28;798;-58
2021/03/07 05:37:41;;;;;;;;;;;;;;;19.83;34.03;102218.88;5116488;28;850;-52
2021/03/07 05:40:07;;;;;;;;;;;;;;;19.17;35.46;102223.59;5116044;28;1967;-52
2021/03/07 05:42:32;;;;;;;;;;;;;;;19.42;35.21;102228.59;5116158;28;965;-59
2021/03/07 05:44:58;;;;;;;;;;;;;;;20.39;33.15;102236.22;5116266;28;790;-58
2021/03/07 05:47:23;;;;;;;;;;;;;;;19.96;34.02;102236.13;5114405;28;961;-58
2021/03/07 05:49:49;;;;;;;;;;;;;;;19.85;34.37;102235.16;5115943;28;1150;-63
2021/03/07 05:52:14;;;;;;;;;;;;;;;19.29;35.43;102232.59;5118127;28;862;-67
2021/03/07 05:54:40;;;;;;;;;;;;;;;18.95;36.19;102229.94;5118048;28;815;-59
2021/03/07 05:57:06;;;;;;;;;;;;;;;20.17;33.59;102232.47;5119864;28;961;-67
2021/03/07 05:59:32;;;;;;;;;;;;;;;20.16;33.51;102233.56;5120019;28;770;-58
2021/03/07 06:01:58;;;;;;;;;;;;;;;19.97;33.84;102235.03;5118689;28;1909;-58
2021/03/07 06:04:57;;;;;;;;;;;;;;;19.59;34.62;102236.81;5120360;28;771;-61
2021/03/07 06:07:36;;;;;;;;;;;;;;;19.34;35.37;102232.66;5120259;28;807;-61
2021/03/07 06:10:18;;;;;;;;;;;;;;;20.23;33.54;102240.78;5118443;28;811;-59
2021/03/07 06:12:54;;;;;;;;;;;;;;;20.02;33.82;102240.63;5119786;28;1016;-59
2021/03/07 06:15:19;;;;;;;;;;;;;;;20.02;33.88;102246.13;5119812;28;783;-59
2021/03/07 06:17:45;;;;;;;;;;;;;;;19.46;35.19;102238.88;5119313;28;803;-60
2021/03/07 06:20:11;;;;;;;;;;;;;;;19.41;35.08;102229.72;5119907;28;1976;-61
2021/03/07 06:22:37;;;;;;;;;;;;;;;20.46;33.15;102234.91;5119646;28;755;-67
2021/03/07 06:25:03;;;;;;;;;;;;;;;20.05;33.83;102231.81;5117797;28;751;-66
2021/03/07 06:27:29;;;;;;;;;;;;;;;20.04;33.84;102227.38;5119574;28;957;-60
2021/03/07 06:29:55;;;;;;;;;;;;;;;19.51;34.88;102235.34;5119696;28;778;-61
2021/03/07 06:32:20;;;;;;;;;;;;;;;19.25;35.55;102231.44;5119352;28;771;-65
2021/03/07 06:34:51;;;;;;;;;;;;;;;20.24;33.84;102228.63;5119390;28;786;-58
2021/03/07 06:37:30;;;;;;;;;;;;;;;20.06;33.76;102235.38;5118238;28;763;-64
2021/03/07 06:39:55;;;;;;;;;;;;;;;19.94;34.05;102243.84;5118874;28;1917;-62
2021/03/07 06:42:21;;;;;;;;;;;;;;;19.68;34.56;102235.25;5118931;28;977;-61
2021/03/07 06:44:53;;;;;;;;;;;;;;;19.26;35.57;102236.69;5117475;28;842;-58
2021/03/07 06:47:19;;;;;;;;;;;;;;;20.36;33.41;102240.34;5117157;28;923;-57
2021/03/07 06:49:44;;;;;;;;;;;;;;;20.11;33.89;102227.97;5118992;28;1110;-62
2021/03/07 06:52:12;;;;;;;;;;;;;;;20.09;33.90;102235.72;5115941;28;978;-56
2021/03/07 06:54:37;;;;;;;;;;;;;;;19.67;34.50;102230.84;5118713;27;890;-48
2021/03/07 06:57:03;;;;;;;;;;;;;;;19.18;35.80;102230.78;5131293;27;811;-57
2021/03/07 06:59:29;;;;;;;;;;;;;;;19.83;34.33;102231.84;5121755;27;822;-52
2021/03/07 07:01:55;;;;;;;;;;;;;;;20.52;33.24;102233.84;5118577;28;1977;-49
2021/03/07 07:04:24;;;;;;;;;;;;;;;19.99;33.98;102232.81;5118617;28;767;-63
2021/03/07 07:07:00;;;;;;;;;;;;;;;19.93;34.36;102229.19;5119082;28;775;-56
2021/03/07 07:09:25;;;;;;;;;;;;;;;19.42;34.91;102232.22;5118708;28;747;-57
2021/03/07 07:11:51;;;;;;;;;;;;;;;19.60;35.02;102222.75;5118370;28;815;-56
2021/03/07 07:14:28;;;;;;;;;;;;;;;20.43;33.21;102229.09;5118556;28;803;-58
2021/03/07 07:16:54;;;;;;;;;;;;;;;20.00;34.05;102220.69;5118342;28;759;-58
2021/03/07 07:19:20;;;;;;;;;;;;;;;19.99;33.99;102216.25;5118741;28;748;-58
2021/03/07 07:21:46;;;;;;;;;;;;;;;19.51;35.05;102220.72;5118402;28;1905;-63
2021/03/07 07:24:12;;;;;;;;;;;;;;;19.06;35.99;102215.19;5116897;28;875;-59
2021/03/07 07:26:37;;;;;;;;;;;;;;;20.17;33.67;102215.03;5117088;28;978;-64
2021/03/07 07:29:03;;;;;;;;;;;;;;;20.21;33.76;102216.19;5118429;28;939;-51
2021/03/07 07:31:28;;;;;;;;;;;;;;;20.01;34.03;102216.84;5118830;28;821;-57
2021/03/07 07:33:56;;;;;;;;;;;;;;;19.71;34.64;102212.63;5118506;28;786;-55
2021/03/07 07:36:32;;;;;;;;;;;;;;;19.14;35.64;102202.91;5118489;28;829;-58
2021/03/07 07:38:57;;;;;;;;;;;;;;;20.35;33.57;102203.59;5118473;28;814;-61
2021/03/07 07:41:33;;;;;;;;;;;;;;;20.05;33.79;102206.09;5117808;28;1905;-60
2021/03/07 07:43:59;;;;;;;;;;;;;;;20.04;33.81;102208.03;5117184;28;799;-60
2021/03/07 07:46:24;;;;;;;;;;;;;;;19.66;34.58;102204.31;5117891;28;874;-59
2021/03/07 07:48:49;;;;;;;;;;;;;;;18.93;36.15;102191.59;5116799;28;806;-62
2021/03/07 07:51:28;;;;;;;;;;;;;;;20.10;33.81;102187.63;5116847;28;1137;-58
2021/03/07 07:53:53;;;;;;;;;;;;;;;20.24;33.49;102192.72;5117632;28;811;-59
2021/03/07 07:56:42;;;;;;;;;;;;;;;20.21;33.61;102182.22;5116346;28;1028;-66
2021/03/07 07:59:10;;;;;;;;;;;;;;;19.65;34.53;102186.91;5109757;28;1596;-60
2021/03/07 08:01:52;;;;;;;;;;;;;;;19.29;35.61;102185.69;5115309;28;1910;-56
2021/03/07 08:04:45;;;;;;;;;;;;;;;19.42;35.44;102182.56;5117581;28;764;-58
2021/03/07 08:07:12;;;;;;;;;;;;;;;20.49;33.32;102172.75;5117105;28;851;-58
2021/03/07 08:09:48;;;;;;;;;;;;;;;20.12;33.89;102179.94;5117911;28;759;-57
2021/03/07 08:12:47;;;;;;;;;;;;;;;19.98;33.97;102164.94;5131532;27;941;-60
2021/03/07 08:15:24;;;;;;;;;;;;;;;19.35;35.19;102172.78;5089292;28;1213;-58
2021/03/07 08:17:57;;;;;;;;;;;;;;;19.36;35.43;102171.72;5116625;28;874;-58
2021/03/07 08:20:41;;;;;;;;;;;;;;;20.48;33.17;102160.88;5116715;28;1918;-58
2021/03/07 08:23:10;;;;;;;;;;;;;;;20.00;34.03;102159.97;5116606;28;863;-58
2021/03/07 08:25:51;;;;;;;;;;;;;;;20.03;34.12;102153.91;5116212;28;1275;-59
2021/03/07 08:28:28;;;;;;;;;;;;;;;19.38;35.09;102148.31;5116809;28;863;-59
2021/03/07 08:30:54;;;;;;;;;;;;;;;19.56;35.02;102149.88;5117095;28;775;-58
2021/03/07 08:33:22;;;;;;;;;;;;;;;20.43;33.43;102158.06;5117248;28;1399;-58
2021/03/07 08:36:06;;;;;;;;;;;;;;;20.07;33.76;102155.03;5117074;28;731;-58
2021/03/07 08:38:32;;;;;;;;;;;;;;;20.07;33.82;102152.28;5096638;28;823;-56
2021/03/07 08:40:57;;;;;;;;;;;;;;;19.41;35.21;102150.53;5100156;28;1976;-57
2021/03/07 08:43:23;;;;;;;;;;;;;;;19.49;35.04;102150.06;5116994;28;791;-57
2021/03/07 08:46:18;;;;;;;;;;;;;;;20.50;33.17;102144.03;5116863;28;850;-58
2021/03/07 08:48:53;;;;;;;;;;;;;;;20.13;33.74;102134.66;5103511;28;1638;-57
2021/03/07 08:51:19;;;;;;;;;;;;;;;19.99;33.74;102128.75;5117007;28;1181;-63
2021/03/07 08:53:45;;;;;;;;;;;;;;;19.30;35.42;102129.47;5116552;28;805;-55
2021/03/07 08:56:11;;;;;;;;;;;;;;;19.78;34.55;102122.22;5116680;28;1020;-57
2021/03/07 08:58:38;;;;;;;;;;;;;;;20.61;32.89;102125.59;5117318;28;795;-57
2021/03/07 09:01:04;;;;;;;;;;;;;;;20.15;33.58;102109.53;5116599;28;1979;-58
2021/03/07 09:03:29;;;;;;;;;;;;;;;20.13;33.81;102109.81;5116681;28;744;-58
2021/03/07 09:05:54;;;;;;;;;;;;;;;19.54;34.91;102107.06;5116877;28;744;-58
2021/03/07 09:08:24;;;;;;;;;;;;;;;19.17;35.67;102100.38;5116627;28;788;-58
2021/03/07 09:10:50;;;;;;;;;;;;;;;20.25;33.74;102100.50;5116343;28;1012;-58
2021/03/07 09:13:19;;;;;;;;;;;;;;;20.45;33.03;102094.25;5116827;28;763;-58
2021/03/07 09:15:54;;;;;;;;;;;;;;;20.07;34.02;102088.78;5116544;28;846;-61
2021/03/07 09:18:20;;;;;;;;;;;;;;;19.77;34.26;102087.41;5116652;28;812;-52
2021/03/07 09:20:47;;;;;;;;;;;;;;;19.25;35.48;102088.03;5116840;28;1901;-49
2021/03/07 09:23:31;;;;;;;;;;;;;;;20.30;33.58;102070.97;5116250;28;795;-53
2021/03/07 09:25:57;;;;;;;;;;;;;;;20.47;32.87;102070.78;5117659;28;946;-54
2021/03/07 09:28:35;;;;;;;;;;;;;;;20.17;33.57;102066.75;5120920;28;751;-53
2021/03/07 09:31:02;;;;;;;;;;;;;;;19.71;34.45;102065.56;5120841;28;822;-51
2021/03/07 09:33:27;;;;;;;;;;;;;;;19.01;35.60;102063.50;5120696;28;735;-53
2021/03/07 09:36:05;;;;;;;;;;;;;;;20.15;33.72;102057.91;5120826;28;765;-57
2021/03/07 09:38:48;;;;;;;;;;;;;;;20.39;32.84;102054.72;5120784;28;794;-58
2021/03/07 09:41:13;;;;;;;;;;;;;;;20.14;33.48;102044.38;5119454;28;1980;-61
2021/03/07 09:43:40;;;;;;;;;;;;;;;19.83;34.07;102044.97;5131737;27;791;-63
2021/03/07 09:46:05;;;;;;;;;;;;;;;19.17;35.42;102049.88;5114791;28;862;-59
2021/03/07 09:48:34;;;;;;;;;;;;;;;19.89;33.96;102042.25;5119336;28;771;-59
2021/03/07 09:51:00;;;;;;;;;;;;;;;20.59;32.71;102039.34;5125356;27;1148;-56
2021/03/07 09:53:25;;;;;;;;;;;;;;;19.99;33.83;102034.91;5127749;27;912;-55
2021/03/07 09:55:51;;;;;;;;;;;;;;;19.91;34.03;102029.00;5119389;28;798;-59
2021/03/07 09:58:16;;;;;;;;;;;;;;;19.25;35.09;102022.69;5120066;28;742;-56
2021/03/07 10:00:48;;;;;;;;;;;;;;;18.95;35.77;102017.69;5119871;28;1985;-57
2021/03/07 10:03:21;;;;;;;;;;;;;;;19.41;35.12;102011.78;5120522;28;802;-52
2021/03/07 10:06:02;;;;;;;;;;;;;;;20.42;32.90;102011.91;5119858;28;794;-50
2021/03/07 10:08:31;;;;;;;;;;;;;;;20.03;33.83;102006.75;5120023;28;839;-51
2021/03/07 10:11:15;;;;;;;;;;;;;;;20.07;33.48;102000.41;5119703;28;917;-59
2021/03/07 10:13:40;;;;;;;;;;;;;;;19.34;34.94;101998.22;5120018;28;720;-55
2021/03/07 10:16:06;;;;;;;;;;;;;;;19.78;34.31;101981.47;5120004;28;846;-59
2021/03/07 10:18:32;;;;;;;;;;;;;;;20.60;32.74;101994.84;5119942;28;767;-57
2021/03/07 10:20:57;;;;;;;;;;;;;;;20.27;33.06;101982.28;5119347;28;1980;-58
2021/03/07 10:23:30;;;;;;;;;;;;;;;20.24;33.11;101978.13;5119384;28;823;-58
2021/03/07 10:25:57;;;;;;;;;;;;;;;19.39;34.64;101973.44;5119638;28;949;-58
2021/03/07 10:28:26;;;;;;;;;;;;;;;19.26;34.92;101976.63;5118165;28;836;-58
2021/03/07 10:30:52;;;;;;;;;;;;;;;20.42;32.74;101971.28;5119751;28;831;-59
2021/03/07 10:33:17;;;;;;;;;;;;;;;20.99;31.73;101960.41;5119468;28;862;-60
2021/03/07 10:36:12;;;;;;;;;;;;;;;20.94;31.76;101957.63;5119218;28;854;-59
2021/03/07 10:38:42;;;;;;;;;;;;;;;20.49;32.80;101949.75;5117550;28;776;-57
2021/03/07 10:41:17;;;;;;;;;;;;;;;20.09;33.28;101951.28;5119062;28;1980;-57
2021/03/07 10:43:43;;;;;;;;;;;;;;;19.47;34.65;101944.53;5119388;28;747;-58
2021/03/07 10:46:09;;;;;;;;;;;;;;;19.22;34.86;101947.91;5119703;28;807;-57
2021/03/07 10:48:34;;;;;;;;;;;;;;;19.20;34.87;101930.81;5119232;28;755;-51
2021/03/07 10:51:00;;;;;;;;;;;;;;;19.51;34.26;101931.03;5118944;28;1050;-54
2021/03/07 10:53:25;;;;;;;;;;;;;;;19.66;34.08;101922.88;5119361;28;790;-53
2021/03/07 10:55:51;;;;;;;;;;;;;;;19.33;34.81;101924.84;5118896;28;1004;-54
2021/03/07 10:58:16;;;;;;;;;;;;;;;19.12;34.97;101921.91;5116317;28;827;-57
2021/03/07 11:00:42;;;;;;;;;;;;;;;20.35;32.73;101919.06;5123997;27;1918;-59
2021/03/07 11:03:07;;;;;;;;;;;;;;;20.09;33.16;101915.38;5127564;27;1401;-59
2021/03/07 11:08:41;;;;;;;;;;;;;;;19.40;34.12;101892.34;5113856;28;875;-58
2021/03/07 11:11:07;;;;;;;;;;;;;;;19.34;34.57;101898.94;5118500;28;827;-59
2021/03/07 11:13:33;;;;;;;;;;;;;;;20.44;32.50;101894.50;5128959;27;1375;-62
2021/03/07 11:15:58;;;;;;;;;;;;;;;20.22;32.73;101885.63;5118785;27;751;-57
2021/03/07 11:18:23;;;;;;;;;;;;;;;20.14;32.73;101873.97;5123190;27;1110;-61
2021/03/07 11:20:49;;;;;;;;;;;;;;;19.74;33.62;101871.84;5119710;27;1917;-62
2021/03/07 11:23:15;;;;;;;;;;;;;;;19.00;34.82;101866.16;5130977;27;779;-58
2021/03/07 11:25:40;;;;;;;;;;;;;;;19.99;33.00;101860.97;5138209;27;952;-57
2021/03/07 11:28:06;;;;;;;;;;;;;;;20.47;32.13;101852.53;5116612;28;821;-58
2021/03/07 11:30:31;;;;;;;;;;;;;;;20.07;32.72;101844.97;5117875;28;831;-57
2021/03/07 11:32:57;;;;;;;;;;;;;;;19.86;33.13;101849.59;5118631;28;830;-58
2021/03/07 11:35:25;;;;;;;;;;;;;;;19.26;34.48;101847.84;5117961;28;829;-57
2021/03/07 11:37:51;;;;;;;;;;;;;;;19.01;34.81;101839.41;5118350;28;832;-58
2021/03/07 11:40:16;;;;;;;;;;;;;;;19.72;33.32;101841.75;5118303;28;1918;-57
2021/03/07 11:42:43;;;;;;;;;;;;;;;20.51;31.89;101833.47;5136003;27;953;-62
2021/03/07 11:45:08;;;;;;;;;;;;;;;20.18;32.32;101833.66;5138709;27;865;-58
2021/03/07 11:47:34;;;;;;;;;;;;;;;20.04;32.71;101817.91;5138795;27;814;-58
2021/03/07 11:49:59;;;;;;;;;;;;;;;19.39;34.07;101820.91;5138264;27;1026;-58
2021/03/07 11:52:25;;;;;;;;;;;;;;;19.10;34.75;101821.28;5138666;27;960;-58
2021/03/07 11:54:50;;;;;;;;;;;;;;;20.15;32.73;101808.53;5138535;27;786;-58
2021/03/07 11:57:16;;;;;;;;;;;;;;;20.23;32.37;101804.41;5126209;27;1008;-57
2021/03/07 11:59:41;;;;;;;;;;;;;;;20.09;32.61;101793.91;5117937;28;787;-57
2021/03/07 12:02:08;;;;;;;;;;;;;;;19.82;33.20;101788.56;5117671;28;1963;-48
2021/03/07 12:04:33;;;;;;;;;;;;;;;19.29;34.41;101796.84;5117376;28;766;-47
2021/03/07 12:06:59;;;;;;;;;;;;;;;20.08;32.83;101783.13;5118146;28;866;-45
2021/03/07 12:09:24;;;;;;;;;;;;;;;20.75;31.54;101786.78;5118130;28;787;-48
2021/03/07 12:11:50;;;;;;;;;;;;;;;20.14;32.49;101784.78;5127757;27;949;-47
2021/03/07 12:14:16;;;;;;;;;;;;;;;20.09;32.75;101777.34;5138078;27;791;-48
2021/03/07 12:16:42;;;;;;;;;;;;;;;19.34;34.17;101761.03;5131164;27;881;-47
2021/03/07 12:19:07;;;;;;;;;;;;;;;18.93;34.91;101774.59;5117732;28;754;-46
2021/03/07 12:21:33;;;;;;;;;;;;;;;20.18;32.87;101756.34;5117506;28;1902;-47
2021/03/07 12:23:58;;;;;;;;;;;;;;;20.39;32.25;101748.09;5117228;28;863;-46
2021/03/07 12:26:24;;;;;;;;;;;;;;;20.10;32.91;101751.34;5123818;27;1004;-48
2021/03/07 12:28:49;;;;;;;;;;;;;;;19.97;32.89;101751.91;5137958;27;755;-49
2021/03/07 12:31:15;;;;;;;;;;;;;;;19.26;34.41;101750.50;5137905;27;751;-47
2021/03/07 12:33:40;;;;;;;;;;;;;;;19.16;34.48;101748.53;5118140;27;1179;-52
2021/03/07 12:36:06;;;;;;;;;;;;;;;20.32;32.08;101742.81;5115694;28;851;-53
2021/03/07 12:38:31;;;;;;;;;;;;;;;20.09;32.35;101743.34;5117170;28;847;-48
2021/03/07 12:40:57;;;;;;;;;;;;;;;20.11;32.24;101730.94;5116869;28;1976;-48
2021/03/07 12:43:22;;;;;;;;;;;;;;;19.66;33.41;101721.44;5117208;28;815;-48
2021/03/07 12:45:48;;;;;;;;;;;;;;;19.20;34.20;101726.78;5117068;28;842;-47
2021/03/07 12:48:13;;;;;;;;;;;;;;;20.12;32.49;101718.78;5117148;28;748;-48
2021/03/07 12:50:39;;;;;;;;;;;;;;;20.52;31.53;101719.06;5116854;28;1160;-50
2021/03/07 12:53:05;;;;;;;;;;;;;;;20.19;32.03;101710.25;5116809;28;907;-53
2021/03/07 12:55:31;;;;;;;;;;;;;;;20.02;32.32;101712.44;5117406;28;747;-56
2021/03/07 12:57:57;;;;;;;;;;;;;;;19.45;33.64;101707.56;5116510;28;953;-55
2021/03/07 13:00:22;;;;;;;;;;;;;;;19.43;33.87;101708.94;5116234;28;1970;-57
2021/03/07 13:02:48;;;;;;;;;;;;;;;20.45;31.58;101702.75;5117384;28;764;-58
2021/03/07 13:05:38;;;;;;;;;;;;;;;20.17;32.02;101696.72;5116845;28;814;-58
2021/03/07 13:08:26;;;;;;;;;;;;;;;20.05;32.25;101704.44;5116818;28;629;-58
2021/03/07 13:10:52;;;;;;;;;;;;;;;19.41;33.23;101703.69;5116935;28;954;-59
2021/03/07 13:13:17;;;;;;;;;;;;;;;19.35;33.34;101706.69;5116781;28;794;-59
2021/03/07 13:15:43;;;;;;;;;;;;;;;20.40;31.34;101702.78;5116743;28;751;-59
2021/03/07 13:18:08;;;;;;;;;;;;;;;20.10;31.73;101696.13;5116612;28;786;-59
2021/03/07 13:20:34;;;;;;;;;;;;;;;20.10;31.63;101696.13;5117032;28;1911;-50
2021/03/07 13:22:59;;;;;;;;;;;;;;;19.77;32.44;101692.78;5116522;28;763;-51
2021/03/07 13:25:25;;;;;;;;;;;;;;;19.08;33.50;101693.91;5116513;28;759;-49
2021/03/07 13:27:50;;;;;;;;;;;;;;;20.03;31.86;101690.06;5116754;28;997;-50